sensor_id;sensor_type;location;lat;lon;timestamp;P1;durP1;ratioP1;P2;durP2;ratioP2
67819;SDS011;54618;52.018;5.576;2022-12-29T00:02:12;3.33;;;1.33;;
67819;SDS011;54618;52.018;5.576;2022-12-29T00:04:38;4.07;;;1.50;;
67819;SDS011;54618;52.018;5.576;2022-12-29T00:07:04;3.88;;;1.30;;
67819;SDS011;54618;52.018;5.576;2022-12-29T00:09:30;3.25;;;1.17;;
67819;SDS011;54618;52.018;5.576;2022-12-29T00:11:57;3.53;;;1.20;;
67819;SDS011;54618;52.018;5.576;2022-12-29T00:14:23;3.28;;;1.30;;
67819;SDS011;54618;52.018;5.576;2022-12-29T00:17:07;4.70;;;1.20;;
67819;SDS011;54618;52.018;5.576;2022-12-29T00:19:33;2.33;;;1.15;;
67819;SDS011;54618;52.018;5.576;2022-12-29T00:22:17;4.47;;;1.40;;
67819;SDS011;54618;52.018;5.576;2022-12-29T00:25:02;4.13;;;1.30;;
67819;SDS011;54618;52.018;5.576;2022-12-29T00:27:34;3.92;;;1.30;;
67819;SDS011;54618;52.018;5.576;2022-12-29T00:30:22;2.50;;;1.20;;
67819;SDS011;54618;52.018;5.576;2022-12-29T00:33:20;4.88;;;1.40;;
67819;SDS011;54618;52.018;5.576;2022-12-29T00:38:37;3.25;;;1.25;;
67819;SDS011;54618;52.018;5.576;2022-12-29T00:41:24;2.88;;;1.08;;
67819;SDS011;54618;52.018;5.576;2022-12-29T00:44:09;2.65;;;1.17;;
67819;SDS011;54618;52.018;5.576;2022-12-29T00:46:37;3.72;;;1.27;;
67819;SDS011;54618;52.018;5.576;2022-12-29T00:49:04;3.70;;;1.13;;
67819;SDS011;54618;52.018;5.576;2022-12-29T00:51:50;2.97;;;1.27;;
67819;SDS011;54618;52.018;5.576;2022-12-29T00:54:16;3.40;;;1.00;;
67819;SDS011;54618;52.018;5.576;2022-12-29T00:56:42;4.03;;;1.20;;
67819;SDS011;54618;52.018;5.576;2022-12-29T00:59:09;2.67;;;1.13;;
67819;SDS011;54618;52.018;5.576;2022-12-29T01:01:36;4.65;;;1.20;;
67819;SDS011;54618;52.018;5.576;2022-12-29T01:04:02;3.67;;;1.30;;
67819;SDS011;54618;52.018;5.576;2022-12-29T01:06:29;3.42;;;1.08;;
67819;SDS011;54618;52.018;5.576;2022-12-29T01:08:54;1.75;;;0.80;;
67819;SDS011;54618;52.018;5.576;2022-12-29T01:11:38;2.63;;;1.20;;
67819;SDS011;54618;52.018;5.576;2022-12-29T01:14:04;3.30;;;1.17;;
67819;SDS011;54618;52.018;5.576;2022-12-29T01:16:30;2.80;;;1.10;;
67819;SDS011;54618;52.018;5.576;2022-12-29T01:18:56;3.25;;;1.23;;
67819;SDS011;54618;52.018;5.576;2022-12-29T01:21:21;3.38;;;1.13;;
67819;SDS011;54618;52.018;5.576;2022-12-29T01:23:47;2.13;;;1.10;;
67819;SDS011;54618;52.018;5.576;2022-12-29T01:26:13;3.42;;;1.10;;
67819;SDS011;54618;52.018;5.576;2022-12-29T01:28:40;3.42;;;1.10;;
67819;SDS011;54618;52.018;5.576;2022-12-29T01:31:07;3.10;;;1.10;;
67819;SDS011;54618;52.018;5.576;2022-12-29T01:33:33;2.38;;;1.00;;
67819;SDS011;54618;52.018;5.576;2022-12-29T01:36:02;1.85;;;0.90;;
67819;SDS011;54618;52.018;5.576;2022-12-29T01:38:29;2.15;;;0.80;;
67819;SDS011;54618;52.018;5.576;2022-12-29T01:40:55;2.75;;;0.90;;
67819;SDS011;54618;52.018;5.576;2022-12-29T01:43:20;2.47;;;1.00;;
67819;SDS011;54618;52.018;5.576;2022-12-29T01:45:50;2.33;;;0.90;;
67819;SDS011;54618;52.018;5.576;2022-12-29T01:48:18;2.30;;;1.02;;
67819;SDS011;54618;52.018;5.576;2022-12-29T01:50:50;3.10;;;1.05;;
67819;SDS011;54618;52.018;5.576;2022-12-29T01:53:19;2.60;;;0.93;;
67819;SDS011;54618;52.018;5.576;2022-12-29T01:55:51;2.88;;;1.08;;
67819;SDS011;54618;52.018;5.576;2022-12-29T01:58:21;1.92;;;0.80;;
67819;SDS011;54618;52.018;5.576;2022-12-29T02:00:49;2.70;;;0.90;;
67819;SDS011;54618;52.018;5.576;2022-12-29T02:03:15;2.15;;;0.85;;
67819;SDS011;54618;52.018;5.576;2022-12-29T02:08:20;2.30;;;0.88;;
67819;SDS011;54618;52.018;5.576;2022-12-29T02:10:48;1.98;;;0.80;;
67819;SDS011;54618;52.018;5.576;2022-12-29T02:13:17;2.30;;;0.90;;
67819;SDS011;54618;52.018;5.576;2022-12-29T02:19:00;2.28;;;0.90;;
67819;SDS011;54618;52.018;5.576;2022-12-29T02:21:57;2.45;;;0.90;;
67819;SDS011;54618;52.018;5.576;2022-12-29T02:30:15;1.60;;;0.80;;
67819;SDS011;54618;52.018;5.576;2022-12-29T02:32:54;1.98;;;0.80;;
67819;SDS011;54618;52.018;5.576;2022-12-29T02:35:50;1.88;;;0.60;;
67819;SDS011;54618;52.018;5.576;2022-12-29T02:41:15;3.50;;;0.93;;
67819;SDS011;54618;52.018;5.576;2022-12-29T02:44:02;1.90;;;0.80;;
67819;SDS011;54618;52.018;5.576;2022-12-29T02:46:45;2.65;;;0.80;;
67819;SDS011;54618;52.018;5.576;2022-12-29T02:49:24;2.00;;;0.80;;
67819;SDS011;54618;52.018;5.576;2022-12-29T02:51:55;1.35;;;0.70;;
67819;SDS011;54618;52.018;5.576;2022-12-29T02:54:32;2.10;;;0.80;;
67819;SDS011;54618;52.018;5.576;2022-12-29T03:00:06;1.38;;;0.60;;
67819;SDS011;54618;52.018;5.576;2022-12-29T03:11:00;0.93;;;0.52;;
67819;SDS011;54618;52.018;5.576;2022-12-29T03:16:46;2.10;;;0.70;;
67819;SDS011;54618;52.018;5.576;2022-12-29T03:19:16;1.65;;;0.70;;
67819;SDS011;54618;52.018;5.576;2022-12-29T03:22:01;1.00;;;0.65;;
67819;SDS011;54618;52.018;5.576;2022-12-29T03:24:48;1.05;;;0.60;;
67819;SDS011;54618;52.018;5.576;2022-12-29T03:27:18;1.52;;;0.65;;
67819;SDS011;54618;52.018;5.576;2022-12-29T03:29:51;1.42;;;0.70;;
67819;SDS011;54618;52.018;5.576;2022-12-29T03:32:21;1.70;;;0.70;;
67819;SDS011;54618;52.018;5.576;2022-12-29T03:34:49;1.45;;;0.60;;
67819;SDS011;54618;52.018;5.576;2022-12-29T03:37:17;2.47;;;0.77;;
67819;SDS011;54618;52.018;5.576;2022-12-29T03:39:47;1.25;;;0.70;;
67819;SDS011;54618;52.018;5.576;2022-12-29T03:42:14;1.50;;;0.63;;
67819;SDS011;54618;52.018;5.576;2022-12-29T03:44:43;1.27;;;0.53;;
67819;SDS011;54618;52.018;5.576;2022-12-29T03:47:10;2.28;;;0.90;;
67819;SDS011;54618;52.018;5.576;2022-12-29T03:49:37;2.78;;;0.80;;
67819;SDS011;54618;52.018;5.576;2022-12-29T03:52:03;1.40;;;0.60;;
67819;SDS011;54618;52.018;5.576;2022-12-29T03:54:30;1.58;;;0.70;;
67819;SDS011;54618;52.018;5.576;2022-12-29T03:56:55;1.45;;;0.60;;
67819;SDS011;54618;52.018;5.576;2022-12-29T03:59:21;1.48;;;0.52;;
67819;SDS011;54618;52.018;5.576;2022-12-29T04:01:47;1.50;;;0.70;;
67819;SDS011;54618;52.018;5.576;2022-12-29T04:04:12;1.75;;;0.50;;
67819;SDS011;54618;52.018;5.576;2022-12-29T04:06:38;1.17;;;0.60;;
67819;SDS011;54618;52.018;5.576;2022-12-29T04:09:03;1.40;;;0.50;;
67819;SDS011;54618;52.018;5.576;2022-12-29T04:11:29;1.05;;;0.50;;
67819;SDS011;54618;52.018;5.576;2022-12-29T04:13:55;1.38;;;0.60;;
67819;SDS011;54618;52.018;5.576;2022-12-29T04:16:20;1.55;;;0.65;;
67819;SDS011;54618;52.018;5.576;2022-12-29T04:18:46;1.13;;;0.55;;
67819;SDS011;54618;52.018;5.576;2022-12-29T04:21:11;1.23;;;0.70;;
67819;SDS011;54618;52.018;5.576;2022-12-29T04:23:37;1.30;;;0.60;;
67819;SDS011;54618;52.018;5.576;2022-12-29T04:26:04;1.63;;;0.60;;
67819;SDS011;54618;52.018;5.576;2022-12-29T04:28:34;2.35;;;0.70;;
67819;SDS011;54618;52.018;5.576;2022-12-29T04:31:00;0.93;;;0.50;;
67819;SDS011;54618;52.018;5.576;2022-12-29T04:33:26;0.90;;;0.50;;
67819;SDS011;54618;52.018;5.576;2022-12-29T04:35:51;1.27;;;0.77;;
67819;SDS011;54618;52.018;5.576;2022-12-29T04:38:21;1.98;;;0.60;;
67819;SDS011;54618;52.018;5.576;2022-12-29T04:40:48;1.08;;;0.55;;
67819;SDS011;54618;52.018;5.576;2022-12-29T04:43:14;1.65;;;0.60;;
67819;SDS011;54618;52.018;5.576;2022-12-29T04:45:46;1.25;;;0.50;;
67819;SDS011;54618;52.018;5.576;2022-12-29T04:48:12;1.63;;;0.50;;
67819;SDS011;54618;52.018;5.576;2022-12-29T04:50:38;1.25;;;0.50;;
67819;SDS011;54618;52.018;5.576;2022-12-29T04:53:04;1.50;;;0.55;;
67819;SDS011;54618;52.018;5.576;2022-12-29T04:55:29;1.63;;;0.70;;
67819;SDS011;54618;52.018;5.576;2022-12-29T04:57:55;1.08;;;0.60;;
67819;SDS011;54618;52.018;5.576;2022-12-29T05:00:20;1.58;;;0.52;;
67819;SDS011;54618;52.018;5.576;2022-12-29T05:02:46;0.90;;;0.50;;
67819;SDS011;54618;52.018;5.576;2022-12-29T05:05:12;1.55;;;0.60;;
67819;SDS011;54618;52.018;5.576;2022-12-29T05:07:38;1.90;;;0.60;;
67819;SDS011;54618;52.018;5.576;2022-12-29T05:10:04;0.90;;;0.50;;
67819;SDS011;54618;52.018;5.576;2022-12-29T05:12:30;0.70;;;0.40;;
67819;SDS011;54618;52.018;5.576;2022-12-29T05:14:56;1.92;;;0.50;;
67819;SDS011;54618;52.018;5.576;2022-12-29T05:17:22;1.92;;;0.47;;
67819;SDS011;54618;52.018;5.576;2022-12-29T05:19:47;1.45;;;0.40;;
67819;SDS011;54618;52.018;5.576;2022-12-29T05:22:13;0.60;;;0.40;;
67819;SDS011;54618;52.018;5.576;2022-12-29T05:24:39;1.67;;;0.57;;
67819;SDS011;54618;52.018;5.576;2022-12-29T05:27:04;1.60;;;0.65;;
67819;SDS011;54618;52.018;5.576;2022-12-29T05:29:30;1.50;;;0.60;;
67819;SDS011;54618;52.018;5.576;2022-12-29T05:31:56;0.73;;;0.50;;
67819;SDS011;54618;52.018;5.576;2022-12-29T05:34:21;1.02;;;0.50;;
67819;SDS011;54618;52.018;5.576;2022-12-29T05:36:47;1.38;;;0.47;;
67819;SDS011;54618;52.018;5.576;2022-12-29T05:39:12;1.67;;;0.55;;
67819;SDS011;54618;52.018;5.576;2022-12-29T05:41:38;1.40;;;0.50;;
67819;SDS011;54618;52.018;5.576;2022-12-29T05:44:03;0.70;;;0.43;;
67819;SDS011;54618;52.018;5.576;2022-12-29T05:46:29;1.00;;;0.52;;
67819;SDS011;54618;52.018;5.576;2022-12-29T05:48:54;0.63;;;0.40;;
67819;SDS011;54618;52.018;5.576;2022-12-29T05:51:20;1.23;;;0.45;;
67819;SDS011;54618;52.018;5.576;2022-12-29T05:53:45;1.25;;;0.47;;
67819;SDS011;54618;52.018;5.576;2022-12-29T05:56:11;0.90;;;0.50;;
67819;SDS011;54618;52.018;5.576;2022-12-29T05:58:37;1.40;;;0.50;;
67819;SDS011;54618;52.018;5.576;2022-12-29T06:01:02;0.95;;;0.43;;
67819;SDS011;54618;52.018;5.576;2022-12-29T06:03:28;1.15;;;0.50;;
67819;SDS011;54618;52.018;5.576;2022-12-29T06:05:53;1.65;;;0.45;;
67819;SDS011;54618;52.018;5.576;2022-12-29T06:08:19;1.10;;;0.57;;
67819;SDS011;54618;52.018;5.576;2022-12-29T06:10:44;1.48;;;0.45;;
67819;SDS011;54618;52.018;5.576;2022-12-29T06:13:10;1.17;;;0.40;;
67819;SDS011;54618;52.018;5.576;2022-12-29T06:15:36;1.80;;;0.40;;
67819;SDS011;54618;52.018;5.576;2022-12-29T06:18:02;1.15;;;0.50;;
67819;SDS011;54618;52.018;5.576;2022-12-29T06:20:27;1.75;;;0.60;;
67819;SDS011;54618;52.018;5.576;2022-12-29T06:22:53;1.15;;;0.50;;
67819;SDS011;54618;52.018;5.576;2022-12-29T06:25:19;1.80;;;0.52;;
67819;SDS011;54618;52.018;5.576;2022-12-29T06:27:44;1.67;;;0.50;;
67819;SDS011;54618;52.018;5.576;2022-12-29T06:30:11;1.45;;;0.50;;
67819;SDS011;54618;52.018;5.576;2022-12-29T06:32:37;1.10;;;0.50;;
67819;SDS011;54618;52.018;5.576;2022-12-29T06:35:03;1.42;;;0.40;;
67819;SDS011;54618;52.018;5.576;2022-12-29T06:37:29;0.63;;;0.40;;
67819;SDS011;54618;52.018;5.576;2022-12-29T06:39:55;0.82;;;0.43;;
67819;SDS011;54618;52.018;5.576;2022-12-29T06:42:20;1.10;;;0.40;;
67819;SDS011;54618;52.018;5.576;2022-12-29T06:44:46;0.65;;;0.45;;
67819;SDS011;54618;52.018;5.576;2022-12-29T06:47:11;0.88;;;0.40;;
67819;SDS011;54618;52.018;5.576;2022-12-29T06:49:37;0.65;;;0.32;;
67819;SDS011;54618;52.018;5.576;2022-12-29T06:52:03;1.27;;;0.50;;
67819;SDS011;54618;52.018;5.576;2022-12-29T06:54:29;1.88;;;0.60;;
67819;SDS011;54618;52.018;5.576;2022-12-29T06:56:56;0.88;;;0.40;;
67819;SDS011;54618;52.018;5.576;2022-12-29T06:59:21;1.52;;;0.40;;
67819;SDS011;54618;52.018;5.576;2022-12-29T07:01:47;1.10;;;0.40;;
67819;SDS011;54618;52.018;5.576;2022-12-29T07:04:12;1.20;;;0.40;;
67819;SDS011;54618;52.018;5.576;2022-12-29T07:06:38;0.68;;;0.30;;
67819;SDS011;54618;52.018;5.576;2022-12-29T07:09:05;0.85;;;0.35;;
67819;SDS011;54618;52.018;5.576;2022-12-29T07:11:31;1.02;;;0.43;;
67819;SDS011;54618;52.018;5.576;2022-12-29T07:13:58;0.70;;;0.40;;
67819;SDS011;54618;52.018;5.576;2022-12-29T07:16:23;2.30;;;0.50;;
67819;SDS011;54618;52.018;5.576;2022-12-29T07:18:49;1.08;;;0.40;;
67819;SDS011;54618;52.018;5.576;2022-12-29T07:21:14;0.93;;;0.40;;
67819;SDS011;54618;52.018;5.576;2022-12-29T07:23:40;0.85;;;0.40;;
67819;SDS011;54618;52.018;5.576;2022-12-29T07:26:07;1.10;;;0.40;;
67819;SDS011;54618;52.018;5.576;2022-12-29T07:28:34;1.83;;;0.40;;
67819;SDS011;54618;52.018;5.576;2022-12-29T07:31:00;1.15;;;0.50;;
67819;SDS011;54618;52.018;5.576;2022-12-29T07:33:28;1.42;;;0.50;;
67819;SDS011;54618;52.018;5.576;2022-12-29T07:35:54;1.15;;;0.60;;
67819;SDS011;54618;52.018;5.576;2022-12-29T07:38:19;1.23;;;0.50;;
67819;SDS011;54618;52.018;5.576;2022-12-29T07:40:45;1.45;;;0.45;;
67819;SDS011;54618;52.018;5.576;2022-12-29T07:43:11;1.35;;;0.40;;
67819;SDS011;54618;52.018;5.576;2022-12-29T07:45:36;1.23;;;0.40;;
67819;SDS011;54618;52.018;5.576;2022-12-29T07:48:02;1.17;;;0.40;;
67819;SDS011;54618;52.018;5.576;2022-12-29T07:50:29;0.77;;;0.40;;
67819;SDS011;54618;52.018;5.576;2022-12-29T07:52:54;1.27;;;0.40;;
67819;SDS011;54618;52.018;5.576;2022-12-29T07:55:20;1.10;;;0.43;;
67819;SDS011;54618;52.018;5.576;2022-12-29T07:57:45;1.20;;;0.40;;
67819;SDS011;54618;52.018;5.576;2022-12-29T08:00:11;1.33;;;0.40;;
67819;SDS011;54618;52.018;5.576;2022-12-29T08:02:37;1.67;;;0.50;;
67819;SDS011;54618;52.018;5.576;2022-12-29T08:05:03;0.77;;;0.40;;
67819;SDS011;54618;52.018;5.576;2022-12-29T08:07:29;1.55;;;0.50;;
67819;SDS011;54618;52.018;5.576;2022-12-29T08:09:54;1.10;;;0.47;;
67819;SDS011;54618;52.018;5.576;2022-12-29T08:12:20;1.17;;;0.35;;
67819;SDS011;54618;52.018;5.576;2022-12-29T08:14:45;0.80;;;0.40;;
67819;SDS011;54618;52.018;5.576;2022-12-29T08:17:11;1.90;;;0.60;;
67819;SDS011;54618;52.018;5.576;2022-12-29T08:19:37;1.52;;;0.40;;
67819;SDS011;54618;52.018;5.576;2022-12-29T08:22:02;1.42;;;0.40;;
67819;SDS011;54618;52.018;5.576;2022-12-29T08:24:28;1.42;;;0.50;;
67819;SDS011;54618;52.018;5.576;2022-12-29T08:26:54;1.25;;;0.50;;
67819;SDS011;54618;52.018;5.576;2022-12-29T08:29:20;1.17;;;0.47;;
67819;SDS011;54618;52.018;5.576;2022-12-29T08:31:46;0.75;;;0.40;;
67819;SDS011;54618;52.018;5.576;2022-12-29T08:34:12;1.13;;;0.50;;
67819;SDS011;54618;52.018;5.576;2022-12-29T08:36:38;2.33;;;0.50;;
67819;SDS011;54618;52.018;5.576;2022-12-29T08:39:04;1.92;;;0.43;;
67819;SDS011;54618;52.018;5.576;2022-12-29T08:41:29;1.33;;;0.50;;
67819;SDS011;54618;52.018;5.576;2022-12-29T08:43:55;1.45;;;0.50;;
67819;SDS011;54618;52.018;5.576;2022-12-29T08:46:21;1.98;;;0.45;;
67819;SDS011;54618;52.018;5.576;2022-12-29T08:48:46;1.52;;;0.50;;
67819;SDS011;54618;52.018;5.576;2022-12-29T08:51:12;1.45;;;0.45;;
67819;SDS011;54618;52.018;5.576;2022-12-29T08:53:38;1.65;;;0.50;;
67819;SDS011;54618;52.018;5.576;2022-12-29T08:56:03;1.30;;;0.40;;
67819;SDS011;54618;52.018;5.576;2022-12-29T08:58:29;1.00;;;0.30;;
67819;SDS011;54618;52.018;5.576;2022-12-29T09:00:55;2.88;;;0.70;;
67819;SDS011;54618;52.018;5.576;2022-12-29T09:03:23;1.92;;;0.47;;
67819;SDS011;54618;52.018;5.576;2022-12-29T09:05:52;1.38;;;0.47;;
67819;SDS011;54618;52.018;5.576;2022-12-29T09:08:18;1.83;;;0.50;;
67819;SDS011;54618;52.018;5.576;2022-12-29T09:10:44;0.93;;;0.40;;
67819;SDS011;54618;52.018;5.576;2022-12-29T09:13:10;1.25;;;0.47;;
67819;SDS011;54618;52.018;5.576;2022-12-29T09:15:37;1.42;;;0.40;;
67819;SDS011;54618;52.018;5.576;2022-12-29T09:18:03;2.10;;;0.55;;
67819;SDS011;54618;52.018;5.576;2022-12-29T09:20:29;1.08;;;0.40;;
67819;SDS011;54618;52.018;5.576;2022-12-29T09:22:55;1.88;;;0.50;;
67819;SDS011;54618;52.018;5.576;2022-12-29T09:25:20;1.67;;;0.47;;
67819;SDS011;54618;52.018;5.576;2022-12-29T09:27:49;2.08;;;0.50;;
67819;SDS011;54618;52.018;5.576;2022-12-29T09:30:17;2.40;;;0.70;;
67819;SDS011;54618;52.018;5.576;2022-12-29T09:32:43;1.42;;;0.47;;
67819;SDS011;54618;52.018;5.576;2022-12-29T09:35:09;1.23;;;0.47;;
67819;SDS011;54618;52.018;5.576;2022-12-29T09:37:35;2.97;;;0.60;;
67819;SDS011;54618;52.018;5.576;2022-12-29T09:40:00;1.30;;;0.35;;
67819;SDS011;54618;52.018;5.576;2022-12-29T09:42:35;1.80;;;0.50;;
67819;SDS011;54618;52.018;5.576;2022-12-29T09:48:17;1.63;;;0.40;;
67819;SDS011;54618;52.018;5.576;2022-12-29T09:50:49;2.03;;;0.50;;
67819;SDS011;54618;52.018;5.576;2022-12-29T09:53:21;2.47;;;0.50;;
67819;SDS011;54618;52.018;5.576;2022-12-29T09:55:55;3.60;;;0.65;;
67819;SDS011;54618;52.018;5.576;2022-12-29T09:58:27;3.08;;;0.60;;
67819;SDS011;54618;52.018;5.576;2022-12-29T10:01:05;2.05;;;0.50;;
67819;SDS011;54618;52.018;5.576;2022-12-29T10:03:36;2.40;;;0.57;;
67819;SDS011;54618;52.018;5.576;2022-12-29T10:06:16;4.45;;;0.60;;
67819;SDS011;54618;52.018;5.576;2022-12-29T10:12:02;1.67;;;0.60;;
67819;SDS011;54618;52.018;5.576;2022-12-29T10:14:47;2.42;;;0.60;;
67819;SDS011;54618;52.018;5.576;2022-12-29T10:20:15;2.00;;;0.60;;
67819;SDS011;54618;52.018;5.576;2022-12-29T10:25:42;0.90;;;0.40;;
67819;SDS011;54618;52.018;5.576;2022-12-29T10:28:16;1.88;;;0.68;;
67819;SDS011;54618;52.018;5.576;2022-12-29T10:30:43;1.98;;;0.68;;
67819;SDS011;54618;52.018;5.576;2022-12-29T10:33:14;2.33;;;0.70;;
67819;SDS011;54618;52.018;5.576;2022-12-29T10:35:43;1.42;;;0.45;;
67819;SDS011;54618;52.018;5.576;2022-12-29T10:38:20;3.40;;;0.77;;
67819;SDS011;54618;52.018;5.576;2022-12-29T10:41:12;3.17;;;0.50;;
67819;SDS011;54618;52.018;5.576;2022-12-29T10:43:49;2.45;;;0.60;;
67819;SDS011;54618;52.018;5.576;2022-12-29T10:46:18;1.75;;;0.60;;
67819;SDS011;54618;52.018;5.576;2022-12-29T10:48:52;1.75;;;0.65;;
67819;SDS011;54618;52.018;5.576;2022-12-29T10:51:21;2.15;;;0.60;;
67819;SDS011;54618;52.018;5.576;2022-12-29T10:53:55;1.85;;;0.70;;
67819;SDS011;54618;52.018;5.576;2022-12-29T10:56:36;1.92;;;0.45;;
67819;SDS011;54618;52.018;5.576;2022-12-29T10:59:14;1.85;;;0.60;;
67819;SDS011;54618;52.018;5.576;2022-12-29T11:01:49;3.08;;;0.60;;
67819;SDS011;54618;52.018;5.576;2022-12-29T11:06:58;2.17;;;0.70;;
67819;SDS011;54618;52.018;5.576;2022-12-29T11:09:29;1.63;;;0.75;;
67819;SDS011;54618;52.018;5.576;2022-12-29T11:11:57;2.13;;;0.70;;
67819;SDS011;54618;52.018;5.576;2022-12-29T11:14:27;3.22;;;0.60;;
67819;SDS011;54618;52.018;5.576;2022-12-29T11:16:58;1.88;;;0.70;;
67819;SDS011;54618;52.018;5.576;2022-12-29T11:19:27;1.55;;;0.60;;
67819;SDS011;54618;52.018;5.576;2022-12-29T11:22:42;1.45;;;0.65;;
67819;SDS011;54618;52.018;5.576;2022-12-29T11:24:47;2.90;;;0.80;;
67819;SDS011;54618;52.018;5.576;2022-12-29T11:27:15;1.63;;;0.60;;
67819;SDS011;54618;52.018;5.576;2022-12-29T11:29:43;1.25;;;0.50;;
67819;SDS011;54618;52.018;5.576;2022-12-29T11:32:13;2.15;;;0.70;;
67819;SDS011;54618;52.018;5.576;2022-12-29T11:34:45;1.75;;;0.70;;
67819;SDS011;54618;52.018;5.576;2022-12-29T11:37:12;2.13;;;0.63;;
67819;SDS011;54618;52.018;5.576;2022-12-29T11:40:03;3.60;;;0.80;;
67819;SDS011;54618;52.018;5.576;2022-12-29T11:45:15;1.92;;;0.70;;
67819;SDS011;54618;52.018;5.576;2022-12-29T11:47:43;2.42;;;0.70;;
67819;SDS011;54618;52.018;5.576;2022-12-29T11:50:23;2.60;;;0.82;;
67819;SDS011;54618;52.018;5.576;2022-12-29T11:53:01;3.22;;;0.70;;
67819;SDS011;54618;52.018;5.576;2022-12-29T11:55:32;2.40;;;0.70;;
67819;SDS011;54618;52.018;5.576;2022-12-29T11:57:58;2.17;;;0.70;;
67819;SDS011;54618;52.018;5.576;2022-12-29T12:00:27;2.42;;;0.68;;
67819;SDS011;54618;52.018;5.576;2022-12-29T12:03:00;2.42;;;0.77;;
67819;SDS011;54618;52.018;5.576;2022-12-29T12:05:31;2.47;;;0.90;;
67819;SDS011;54618;52.018;5.576;2022-12-29T12:08:09;1.98;;;0.68;;
67819;SDS011;54618;52.018;5.576;2022-12-29T12:10:38;1.52;;;0.50;;
67819;SDS011;54618;52.018;5.576;2022-12-29T12:13:26;1.92;;;0.85;;
67819;SDS011;54618;52.018;5.576;2022-12-29T12:16:14;1.85;;;0.73;;
67819;SDS011;54618;52.018;5.576;2022-12-29T12:18:49;2.42;;;0.80;;
67819;SDS011;54618;52.018;5.576;2022-12-29T12:21:39;2.42;;;1.00;;
67819;SDS011;54618;52.018;5.576;2022-12-29T12:27:01;2.95;;;0.70;;
67819;SDS011;54618;52.018;5.576;2022-12-29T12:32:26;1.67;;;0.68;;
67819;SDS011;54618;52.018;5.576;2022-12-29T12:35:02;3.20;;;0.90;;
67819;SDS011;54618;52.018;5.576;2022-12-29T12:37:33;2.67;;;0.80;;
67819;SDS011;54618;52.018;5.576;2022-12-29T12:43:23;2.50;;;0.80;;
67819;SDS011;54618;52.018;5.576;2022-12-29T12:54:26;1.63;;;0.70;;
67819;SDS011;54618;52.018;5.576;2022-12-29T12:57:12;3.05;;;0.70;;
67819;SDS011;54618;52.018;5.576;2022-12-29T13:02:23;2.13;;;0.70;;
67819;SDS011;54618;52.018;5.576;2022-12-29T13:05:12;3.08;;;0.98;;
67819;SDS011;54618;52.018;5.576;2022-12-29T13:13:37;3.13;;;0.80;;
67819;SDS011;54618;52.018;5.576;2022-12-29T13:21:37;3.65;;;1.05;;
67819;SDS011;54618;52.018;5.576;2022-12-29T13:24:17;3.13;;;1.05;;
67819;SDS011;54618;52.018;5.576;2022-12-29T13:29:32;1.65;;;0.77;;
67819;SDS011;54618;52.018;5.576;2022-12-29T13:32:25;2.17;;;0.80;;
67819;SDS011;54618;52.018;5.576;2022-12-29T13:38:11;1.90;;;0.68;;
67819;SDS011;54618;52.018;5.576;2022-12-29T13:40:44;2.22;;;0.82;;
67819;SDS011;54618;52.018;5.576;2022-12-29T13:43:14;2.55;;;1.00;;
67819;SDS011;54618;52.018;5.576;2022-12-29T13:45:41;3.30;;;0.82;;
67819;SDS011;54618;52.018;5.576;2022-12-29T13:50:45;2.72;;;0.70;;
67819;SDS011;54618;52.018;5.576;2022-12-29T13:58:33;2.03;;;0.73;;
67819;SDS011;54618;52.018;5.576;2022-12-29T14:08:42;2.38;;;0.82;;
67819;SDS011;54618;52.018;5.576;2022-12-29T14:11:09;2.03;;;0.80;;
67819;SDS011;54618;52.018;5.576;2022-12-29T14:13:37;2.67;;;0.80;;
67819;SDS011;54618;52.018;5.576;2022-12-29T14:16:05;1.92;;;0.77;;
67819;SDS011;54618;52.018;5.576;2022-12-29T14:18:31;2.75;;;0.88;;
67819;SDS011;54618;52.018;5.576;2022-12-29T14:21:08;2.28;;;0.95;;
67819;SDS011;54618;52.018;5.576;2022-12-29T14:23:44;2.72;;;0.90;;
67819;SDS011;54618;52.018;5.576;2022-12-29T14:26:18;2.53;;;0.90;;
67819;SDS011;54618;52.018;5.576;2022-12-29T14:34:51;2.40;;;0.68;;
67819;SDS011;54618;52.018;5.576;2022-12-29T14:37:24;3.83;;;1.00;;
67819;SDS011;54618;52.018;5.576;2022-12-29T14:40:01;2.65;;;0.80;;
67819;SDS011;54618;52.018;5.576;2022-12-29T14:42:31;3.53;;;1.10;;
67819;SDS011;54618;52.018;5.576;2022-12-29T14:45:00;2.70;;;0.60;;
67819;SDS011;54618;52.018;5.576;2022-12-29T14:49:56;2.28;;;0.75;;
67819;SDS011;54618;52.018;5.576;2022-12-29T14:52:29;2.45;;;0.80;;
67819;SDS011;54618;52.018;5.576;2022-12-29T14:54:57;2.45;;;0.68;;
67819;SDS011;54618;52.018;5.576;2022-12-29T14:57:43;2.80;;;0.68;;
67819;SDS011;54618;52.018;5.576;2022-12-29T15:00:15;1.75;;;0.90;;
67819;SDS011;54618;52.018;5.576;2022-12-29T15:02:46;2.50;;;0.60;;
67819;SDS011;54618;52.018;5.576;2022-12-29T15:05:29;3.13;;;1.00;;
67819;SDS011;54618;52.018;5.576;2022-12-29T15:08:16;3.47;;;0.88;;
67819;SDS011;54618;52.018;5.576;2022-12-29T15:10:58;2.72;;;0.80;;
67819;SDS011;54618;52.018;5.576;2022-12-29T15:13:38;1.95;;;0.60;;
67819;SDS011;54618;52.018;5.576;2022-12-29T15:16:52;3.20;;;0.77;;
67819;SDS011;54618;52.018;5.576;2022-12-29T15:21:33;2.13;;;0.80;;
67819;SDS011;54618;52.018;5.576;2022-12-29T15:24:00;2.03;;;0.80;;
67819;SDS011;54618;52.018;5.576;2022-12-29T15:26:41;2.17;;;0.80;;
67819;SDS011;54618;52.018;5.576;2022-12-29T15:31:56;1.95;;;0.70;;
67819;SDS011;54618;52.018;5.576;2022-12-29T15:34:24;2.53;;;0.80;;
67819;SDS011;54618;52.018;5.576;2022-12-29T15:36:54;2.33;;;0.90;;
67819;SDS011;54618;52.018;5.576;2022-12-29T15:39:20;2.70;;;0.77;;
67819;SDS011;54618;52.018;5.576;2022-12-29T15:41:56;3.28;;;0.77;;
67819;SDS011;54618;52.018;5.576;2022-12-29T15:44:39;1.95;;;0.60;;
67819;SDS011;54618;52.018;5.576;2022-12-29T15:47:26;2.70;;;0.80;;
67819;SDS011;54618;52.018;5.576;2022-12-29T15:49:59;2.13;;;0.70;;
67819;SDS011;54618;52.018;5.576;2022-12-29T15:52:47;2.22;;;0.73;;
67819;SDS011;54618;52.018;5.576;2022-12-29T15:55:20;1.80;;;0.70;;
67819;SDS011;54618;52.018;5.576;2022-12-29T15:57:55;2.17;;;0.70;;
67819;SDS011;54618;52.018;5.576;2022-12-29T16:00:33;1.42;;;0.65;;
67819;SDS011;54618;52.018;5.576;2022-12-29T16:03:02;2.47;;;0.77;;
67819;SDS011;54618;52.018;5.576;2022-12-29T16:05:34;2.30;;;0.70;;
67819;SDS011;54618;52.018;5.576;2022-12-29T16:08:01;2.05;;;0.60;;
67819;SDS011;54618;52.018;5.576;2022-12-29T16:10:30;1.75;;;0.70;;
67819;SDS011;54618;52.018;5.576;2022-12-29T16:13:04;2.05;;;0.68;;
67819;SDS011;54618;52.018;5.576;2022-12-29T16:15:41;2.28;;;0.90;;
67819;SDS011;54618;52.018;5.576;2022-12-29T16:18:14;3.35;;;0.70;;
67819;SDS011;54618;52.018;5.576;2022-12-29T16:20:53;2.28;;;0.75;;
67819;SDS011;54618;52.018;5.576;2022-12-29T16:23:25;4.00;;;0.70;;
67819;SDS011;54618;52.018;5.576;2022-12-29T16:25:53;2.00;;;0.70;;
67819;SDS011;54618;52.018;5.576;2022-12-29T16:28:23;1.70;;;0.60;;
67819;SDS011;54618;52.018;5.576;2022-12-29T16:33:32;1.90;;;0.70;;
67819;SDS011;54618;52.018;5.576;2022-12-29T16:36:21;2.40;;;0.80;;
67819;SDS011;54618;52.018;5.576;2022-12-29T16:42:01;2.00;;;0.80;;
67819;SDS011;54618;52.018;5.576;2022-12-29T16:47:46;1.88;;;0.60;;
67819;SDS011;54618;52.018;5.576;2022-12-29T16:50:35;1.90;;;0.55;;
67819;SDS011;54618;52.018;5.576;2022-12-29T16:53:06;3.75;;;1.02;;
67819;SDS011;54618;52.018;5.576;2022-12-29T16:56:03;5.13;;;1.00;;
67819;SDS011;54618;52.018;5.576;2022-12-29T16:58:38;3.53;;;0.80;;
67819;SDS011;54618;52.018;5.576;2022-12-29T17:01:04;3.10;;;0.80;;
67819;SDS011;54618;52.018;5.576;2022-12-29T17:03:40;2.97;;;1.00;;
67819;SDS011;54618;52.018;5.576;2022-12-29T17:06:13;1.75;;;0.63;;
67819;SDS011;54618;52.018;5.576;2022-12-29T17:08:41;3.42;;;0.90;;
67819;SDS011;54618;52.018;5.576;2022-12-29T17:11:14;4.25;;;0.93;;
67819;SDS011;54618;52.018;5.576;2022-12-29T17:16:54;4.63;;;0.85;;